PWSweather.com
Personal Weather Stations
Station Observations
JOE4SPEED
Jupiter, Fl, Jupiter, FL 33458

Jupiter, FlJupiter, FL 33458

Lat: 26.9373, Lon: -80.1101

Elevation: 12

Station Type: Davis VP 2

http://www.joe4speed.com/wxindex.php

High Low Average
Temperature 88.9°F31.6°C 72.8°F22.7°C 77.8°F25.4°C
Dew Point 75.0°F23.9°C 68.6°F20.3°C 71.7°F22.1°C
Winds 9.8 mph 15.8 kmh Calm Calm 2.0 mph S3.2 kmh S
Wind Gusts 21.0 mph33.8 kmh -- 4.0 mph6.4 kmh
Humidity 90% 61% 82%
Pressure 29.95 in1014.2 mb 29.83 in1010.2 mb -
Precipitation 0.37 in9.4 mm - -
Hour Temp Dew Point Humidity Winds Wind Gusts Pressure Precip Precip Rate Daily Precip Total
12:00 AM 78.3°F25.7°C 72.3°F22.4°C 82% 0.8 mph SSW1.3 kmh SSW 2.0 mph3.2 kmh 29.94 in1013.9 mb - 0.00 in0.0 mm 0.00 in0.0 mm
12:10 AM 78.4°F25.8°C 72.4°F22.4°C 82% 0.5 mph SW0.8 kmh SW 2.0 mph3.2 kmh 29.95 in1014.2 mb - 0.00 in0.0 mm 0.00 in0.0 mm
12:20 AM 78.3°F25.7°C 72.3°F22.4°C 82% Calm Calm -- 29.95 in1014.2 mb - 0.00 in0.0 mm 0.00 in0.0 mm
12:30 AM 78.2°F25.7°C 71.9°F22.2°C 81% 0.3 mph SW0.5 kmh SW 1.0 mph1.6 kmh 29.95 in1014.2 mb - 0.00 in0.0 mm 0.00 in0.0 mm
12:40 AM 78.2°F25.7°C 71.9°F22.2°C 81% Calm Calm -- 29.95 in1014.2 mb - 0.00 in0.0 mm 0.00 in0.0 mm
12:50 AM 78.1°F25.6°C 71.8°F22.1°C 81% Calm Calm 1.0 mph1.6 kmh 29.95 in1014.2 mb - 0.00 in0.0 mm 0.00 in0.0 mm
01:00 AM 78.0°F25.6°C 71.7°F22.1°C 81% Calm Calm 1.0 mph1.6 kmh 29.95 in1014.2 mb - 0.00 in0.0 mm 0.00 in0.0 mm
01:10 AM 77.8°F25.4°C 71.5°F21.9°C 81% 0.4 mph S0.6 kmh S 1.0 mph1.6 kmh 29.94 in1013.9 mb - 0.00 in0.0 mm 0.00 in0.0 mm
01:20 AM 77.7°F25.4°C 71.4°F21.9°C 81% 0.2 mph SSW0.3 kmh SSW 2.0 mph3.2 kmh 29.94 in1013.9 mb - 0.00 in0.0 mm 0.00 in0.0 mm
01:30 AM 77.5°F25.3°C 71.2°F21.8°C 81% 0.7 mph SE1.1 kmh SE 1.0 mph1.6 kmh 29.92 in1013.2 mb - 0.00 in0.0 mm 0.00 in0.0 mm
01:40 AM 77.2°F25.1°C 70.9°F21.6°C 81% 0.6 mph S1.0 kmh S 3.0 mph4.8 kmh 29.91 in1012.9 mb - 0.00 in0.0 mm 0.00 in0.0 mm
01:50 AM 76.9°F24.9°C 71.0°F21.7°C 82% 0.2 mph S0.3 kmh S -- 29.91 in1012.9 mb - 0.00 in0.0 mm 0.00 in0.0 mm
02:00 AM 76.6°F24.8°C 70.7°F21.5°C 82% 0.6 mph SW1.0 kmh SW 1.0 mph1.6 kmh 29.91 in1012.9 mb - 0.00 in0.0 mm 0.00 in0.0 mm
02:10 AM 76.3°F24.6°C 70.8°F21.6°C 83% Calm Calm -- 29.91 in1012.9 mb - 0.00 in0.0 mm 0.00 in0.0 mm
02:20 AM 76.1°F24.5°C 70.5°F21.4°C 83% 0.2 mph SW0.3 kmh SW 1.0 mph1.6 kmh 29.91 in1012.9 mb - 0.00 in0.0 mm 0.00 in0.0 mm
02:30 AM 75.8°F24.3°C 70.3°F21.3°C 83% 0.3 mph SW0.5 kmh SW 2.0 mph3.2 kmh 29.90 in1012.5 mb - 0.00 in0.0 mm 0.00 in0.0 mm
02:40 AM 75.6°F24.2°C 70.4°F21.3°C 84% Calm Calm 1.0 mph1.6 kmh 29.89 in1012.2 mb - 0.00 in0.0 mm 0.00 in0.0 mm
02:50 AM 75.5°F24.2°C 70.3°F21.3°C 84% 1.5 mph SSE2.4 kmh SSE 2.0 mph3.2 kmh 29.89 in1012.2 mb - 0.00 in0.0 mm 0.00 in0.0 mm
03:00 AM 75.4°F24.1°C 70.2°F21.2°C 84% 0.6 mph SSE1.0 kmh SSE 1.0 mph1.6 kmh 29.88 in1011.9 mb - 0.00 in0.0 mm 0.00 in0.0 mm
03:10 AM 75.4°F24.1°C 70.6°F21.4°C 85% 2.0 mph SE3.2 kmh SE 4.0 mph6.4 kmh 29.87 in1011.5 mb - 0.00 in0.0 mm 0.00 in0.0 mm
03:20 AM 75.6°F24.2°C 70.8°F21.6°C 85% 2.2 mph SE3.5 kmh SE 4.0 mph6.4 kmh 29.87 in1011.5 mb - 0.00 in0.0 mm 0.00 in0.0 mm
03:30 AM 75.8°F24.3°C 70.9°F21.6°C 85% 0.6 mph SSE1.0 kmh SSE 2.0 mph3.2 kmh 29.88 in1011.9 mb - 0.00 in0.0 mm 0.00 in0.0 mm
03:40 AM 75.8°F24.3°C 71.0°F21.7°C 85% Calm Calm -- 29.89 in1012.2 mb - 0.00 in0.0 mm 0.00 in0.0 mm
03:50 AM 75.8°F24.3°C 71.0°F21.7°C 85% Calm Calm 2.0 mph3.2 kmh 29.89 in1012.2 mb - 0.00 in0.0 mm 0.00 in0.0 mm
04:00 AM 75.7°F24.3°C 70.9°F21.6°C 85% Calm Calm 1.0 mph1.6 kmh 29.89 in1012.2 mb - 0.00 in0.0 mm 0.00 in0.0 mm
04:10 AM 75.8°F24.3°C 71.0°F21.7°C 85% Calm Calm -- 29.89 in1012.2 mb - 0.00 in0.0 mm 0.00 in0.0 mm
04:20 AM 75.8°F24.3°C 71.0°F21.7°C 85% 0.2 mph SSW0.3 kmh SSW -- 29.89 in1012.2 mb - 0.00 in0.0 mm 0.00 in0.0 mm
04:30 AM 75.7°F24.3°C 70.9°F21.6°C 85% 0.6 mph SSW1.0 kmh SSW 1.0 mph1.6 kmh 29.89 in1012.2 mb - 0.00 in0.0 mm 0.00 in0.0 mm
04:40 AM 75.6°F24.2°C 71.1°F21.7°C 86% 0.5 mph SSW0.8 kmh SSW 1.0 mph1.6 kmh 29.89 in1012.2 mb - 0.00 in0.0 mm 0.00 in0.0 mm
04:50 AM 75.6°F24.2°C 71.1°F21.7°C 86% 0.3 mph SSW0.5 kmh SSW 2.0 mph3.2 kmh 29.89 in1012.2 mb - 0.00 in0.0 mm 0.00 in0.0 mm
05:00 AM 75.6°F24.2°C 71.1°F21.7°C 86% 0.3 mph SW0.5 kmh SW -- 29.90 in1012.5 mb - 0.00 in0.0 mm 0.00 in0.0 mm
05:10 AM 75.5°F24.2°C 71.0°F21.7°C 86% 0.2 mph SSW0.3 kmh SSW 1.0 mph1.6 kmh 29.89 in1012.2 mb - 0.00 in0.0 mm 0.00 in0.0 mm
05:20 AM 75.3°F24.1°C 70.8°F21.6°C 86% Calm Calm -- 29.89 in1012.2 mb - 0.00 in0.0 mm 0.00 in0.0 mm
05:30 AM 75.1°F23.9°C 70.6°F21.4°C 86% Calm Calm -- 29.89 in1012.2 mb - 0.00 in0.0 mm 0.00 in0.0 mm
05:40 AM 74.9°F23.8°C 70.8°F21.6°C 87% Calm Calm -- 29.90 in1012.5 mb - 0.00 in0.0 mm 0.00 in0.0 mm
05:50 AM 75.0°F23.9°C 70.9°F21.6°C 87% 0.1 mph SW0.2 kmh SW 1.0 mph1.6 kmh 29.90 in1012.5 mb - 0.00 in0.0 mm 0.00 in0.0 mm
06:00 AM 75.1°F23.9°C 71.0°F21.7°C 87% Calm Calm -- 29.90 in1012.5 mb - 0.00 in0.0 mm 0.00 in0.0 mm
06:10 AM 75.1°F23.9°C 71.3°F21.8°C 88% Calm Calm -- 29.90 in1012.5 mb - 0.00 in0.0 mm 0.00 in0.0 mm
06:20 AM 75.0°F23.9°C 71.2°F21.8°C 88% Calm Calm -- 29.90 in1012.5 mb - 0.00 in0.0 mm 0.00 in0.0 mm
06:30 AM 74.8°F23.8°C 71.0°F21.7°C 88% Calm Calm -- 29.90 in1012.5 mb - 0.00 in0.0 mm 0.00 in0.0 mm
06:40 AM 74.8°F23.8°C 71.0°F21.7°C 88% Calm Calm -- 29.91 in1012.9 mb - 0.00 in0.0 mm 0.00 in0.0 mm
06:50 AM 74.7°F23.7°C 70.9°F21.6°C 88% Calm Calm -- 29.91 in1012.9 mb - 0.00 in0.0 mm 0.00 in0.0 mm
07:00 AM 74.6°F23.7°C 70.8°F21.6°C 88% 0.7 mph SSW1.1 kmh SSW 1.0 mph1.6 kmh 29.91 in1012.9 mb - 0.00 in0.0 mm 0.00 in0.0 mm
07:10 AM 74.7°F23.7°C 70.9°F21.6°C 88% 0.5 mph SW0.8 kmh SW 2.0 mph3.2 kmh 29.91 in1012.9 mb - 0.00 in0.0 mm 0.00 in0.0 mm
07:20 AM 74.8°F23.8°C 71.0°F21.7°C 88% 0.4 mph SSW0.6 kmh SSW 3.0 mph4.8 kmh 29.91 in1012.9 mb - 0.00 in0.0 mm 0.00 in0.0 mm
07:30 AM 75.0°F23.9°C 71.5°F21.9°C 89% 0.9 mph SW1.4 kmh SW 3.0 mph4.8 kmh 29.91 in1012.9 mb - 0.00 in0.0 mm 0.00 in0.0 mm
07:40 AM 75.2°F24.0°C 71.7°F22.1°C 89% 1.4 mph S2.3 kmh S 4.0 mph6.4 kmh 29.92 in1013.2 mb - 0.00 in0.0 mm 0.00 in0.0 mm
07:50 AM 75.4°F24.1°C 71.9°F22.2°C 89% 1.3 mph SSW2.1 kmh SSW 3.0 mph4.8 kmh 29.92 in1013.2 mb - 0.00 in0.0 mm 0.00 in0.0 mm
08:00 AM 75.7°F24.3°C 72.2°F22.3°C 89% 0.5 mph SSW0.8 kmh SSW 3.0 mph4.8 kmh 29.92 in1013.2 mb - 0.00 in0.0 mm 0.00 in0.0 mm
08:10 AM 75.9°F24.4°C 72.4°F22.4°C 89% 2.6 mph S4.2 kmh S 5.0 mph8.0 kmh 29.92 in1013.2 mb - 0.00 in0.0 mm 0.00 in0.0 mm
08:20 AM 76.4°F24.7°C 72.9°F22.7°C 89% 0.6 mph S1.0 kmh S 3.0 mph4.8 kmh 29.92 in1013.2 mb - 0.00 in0.0 mm 0.00 in0.0 mm
08:30 AM 77.1°F25.1°C 73.6°F23.1°C 89% 3.0 mph SSW4.8 kmh SSW 5.0 mph8.0 kmh 29.93 in1013.5 mb - 0.00 in0.0 mm 0.00 in0.0 mm
08:40 AM 77.5°F25.3°C 73.7°F23.2°C 88% 1.7 mph SSE2.7 kmh SSE 1.0 mph1.6 kmh 29.93 in1013.5 mb - 0.00 in0.0 mm 0.00 in0.0 mm
08:50 AM 77.8°F25.4°C 74.0°F23.3°C 88% 3.0 mph SSW4.8 kmh SSW 5.0 mph8.0 kmh 29.93 in1013.5 mb - 0.00 in0.0 mm 0.00 in0.0 mm
09:00 AM 78.6°F25.9°C 74.4°F23.6°C 87% 1.7 mph SW2.7 kmh SW 5.0 mph8.0 kmh 29.93 in1013.5 mb - 0.00 in0.0 mm 0.00 in0.0 mm
09:10 AM 79.2°F26.2°C 74.7°F23.7°C 86% 4.3 mph SW6.9 kmh SW 6.0 mph9.7 kmh 29.94 in1013.9 mb - 0.00 in0.0 mm 0.00 in0.0 mm
09:20 AM 80.0°F26.7°C 74.8°F23.8°C 84% 5.4 mph SW8.7 kmh SW 8.0 mph12.9 kmh 29.93 in1013.5 mb - 0.00 in0.0 mm 0.00 in0.0 mm
09:30 AM 80.9°F27.2°C 74.8°F23.8°C 82% 4.1 mph SSW6.6 kmh SSW 9.0 mph14.5 kmh 29.94 in1013.9 mb - 0.00 in0.0 mm 0.00 in0.0 mm
09:40 AM 81.2°F27.3°C 74.4°F23.6°C 80% 3.1 mph SW5.0 kmh SW 7.0 mph11.3 kmh 29.93 in1013.5 mb - 0.00 in0.0 mm 0.00 in0.0 mm
09:50 AM 82.2°F27.9°C 74.6°F23.7°C 78% 3.2 mph SW5.1 kmh SW 6.0 mph9.7 kmh 29.93 in1013.5 mb - 0.00 in0.0 mm 0.00 in0.0 mm
10:00 AM 83.4°F28.6°C 75.0°F23.9°C 76% 5.6 mph SW9.0 kmh SW 10.0 mph16.1 kmh 29.93 in1013.5 mb - 0.00 in0.0 mm 0.00 in0.0 mm
10:10 AM 84.0°F28.9°C 74.4°F23.6°C 73% 5.4 mph SSE8.7 kmh SSE 10.0 mph16.1 kmh 29.93 in1013.5 mb - 0.00 in0.0 mm 0.00 in0.0 mm
10:20 AM 84.8°F29.3°C 74.7°F23.7°C 72% 6.0 mph S9.7 kmh S 11.0 mph17.7 kmh 29.93 in1013.5 mb - 0.00 in0.0 mm 0.00 in0.0 mm
10:30 AM 85.7°F29.8°C 74.4°F23.6°C 69% 6.4 mph SW10.3 kmh SW 10.0 mph16.1 kmh 29.93 in1013.5 mb - 0.00 in0.0 mm 0.00 in0.0 mm
10:40 AM 85.7°F29.8°C 74.4°F23.6°C 69% 6.5 mph SSW10.5 kmh SSW 10.0 mph16.1 kmh 29.93 in1013.5 mb - 0.00 in0.0 mm 0.00 in0.0 mm
10:50 AM 85.9°F29.9°C 74.1°F23.4°C 68% 4.3 mph SW6.9 kmh SW 9.0 mph14.5 kmh 29.94 in1013.9 mb - 0.00 in0.0 mm 0.00 in0.0 mm
11:00 AM 84.8°F29.3°C 73.5°F23.1°C 69% 3.7 mph S6.0 kmh S 7.0 mph11.3 kmh 29.94 in1013.9 mb - 0.00 in0.0 mm 0.00 in0.0 mm
11:10 AM 85.8°F29.9°C 74.9°F23.8°C 70% 5.0 mph SW8.0 kmh SW 9.0 mph14.5 kmh 29.93 in1013.5 mb - 0.00 in0.0 mm 0.00 in0.0 mm
11:20 AM 85.8°F29.9°C 73.1°F22.8°C 66% 4.2 mph SW6.8 kmh SW 9.0 mph14.5 kmh 29.93 in1013.5 mb - 0.00 in0.0 mm 0.00 in0.0 mm
11:30 AM 86.5°F30.3°C 73.8°F23.2°C 66% 3.5 mph SW5.6 kmh SW 9.0 mph14.5 kmh 29.93 in1013.5 mb - 0.00 in0.0 mm 0.00 in0.0 mm
11:40 AM 86.6°F30.3°C 73.8°F23.2°C 66% 5.6 mph S9.0 kmh S 11.0 mph17.7 kmh 29.92 in1013.2 mb - 0.00 in0.0 mm 0.00 in0.0 mm
11:50 AM 87.9°F31.1°C 74.2°F23.4°C 64% 6.7 mph SE10.8 kmh SE 13.0 mph20.9 kmh 29.92 in1013.2 mb - 0.00 in0.0 mm 0.00 in0.0 mm
12:00 PM 87.9°F31.1°C 74.7°F23.7°C 65% 4.5 mph S7.2 kmh S 8.0 mph12.9 kmh 29.92 in1013.2 mb - 0.00 in0.0 mm 0.00 in0.0 mm
12:10 PM 88.9°F31.6°C 74.1°F23.4°C 62% 2.1 mph SE3.4 kmh SE 7.0 mph11.3 kmh 29.92 in1013.2 mb - 0.00 in0.0 mm 0.00 in0.0 mm
12:20 PM 88.6°F31.4°C 74.4°F23.6°C 63% 4.4 mph SSW7.1 kmh SSW 9.0 mph14.5 kmh 29.92 in1013.2 mb - 0.00 in0.0 mm 0.00 in0.0 mm
12:30 PM 88.5°F31.4°C 74.3°F23.5°C 63% 6.1 mph SE9.8 kmh SE 9.0 mph14.5 kmh 29.92 in1013.2 mb - 0.00 in0.0 mm 0.00 in0.0 mm
12:40 PM 88.7°F31.5°C 74.0°F23.3°C 62% 3.7 mph SSW6.0 kmh SSW 7.0 mph11.3 kmh 29.92 in1013.2 mb - 0.00 in0.0 mm 0.00 in0.0 mm
12:50 PM 88.3°F31.3°C 74.1°F23.4°C 63% 3.0 mph SSW4.8 kmh SSW 6.0 mph9.7 kmh 29.91 in1012.9 mb - 0.00 in0.0 mm 0.00 in0.0 mm
01:00 PM 88.5°F31.4°C 73.8°F23.2°C 62% 3.9 mph SSW6.3 kmh SSW 8.0 mph12.9 kmh 29.90 in1012.5 mb - 0.00 in0.0 mm 0.00 in0.0 mm
01:10 PM 88.6°F31.4°C 73.4°F23.0°C 61% 2.4 mph SSW3.9 kmh SSW 4.0 mph6.4 kmh 29.90 in1012.5 mb - 0.00 in0.0 mm 0.00 in0.0 mm
01:20 PM 88.4°F31.3°C 73.2°F22.9°C 61% 1.9 mph WSW3.1 kmh WSW 5.0 mph8.0 kmh 29.89 in1012.2 mb - 0.00 in0.0 mm 0.00 in0.0 mm
01:30 PM 88.2°F31.2°C 74.0°F23.3°C 63% 4.4 mph SSE7.1 kmh SSE 10.0 mph16.1 kmh 29.88 in1011.9 mb - 0.00 in0.0 mm 0.00 in0.0 mm
01:40 PM 87.9°F31.1°C 74.6°F23.7°C 65% 4.6 mph SE7.4 kmh SE 9.0 mph14.5 kmh 29.87 in1011.5 mb - 0.00 in0.0 mm 0.00 in0.0 mm
01:50 PM 87.1°F30.6°C 74.8°F23.8°C 67% 7.4 mph SSE11.9 kmh SSE 11.0 mph17.7 kmh 29.87 in1011.5 mb - 0.00 in0.0 mm 0.00 in0.0 mm
02:00 PM 87.4°F30.8°C 74.6°F23.7°C 66% 7.4 mph SE11.9 kmh SE 11.0 mph17.7 kmh 29.86 in1011.2 mb - 0.00 in0.0 mm 0.00 in0.0 mm
02:10 PM 87.1°F30.6°C 74.4°F23.6°C 66% 7.5 mph SE12.1 kmh SE 13.0 mph20.9 kmh 29.86 in1011.2 mb - 0.00 in0.0 mm 0.00 in0.0 mm
02:20 PM 86.4°F30.2°C 73.7°F23.2°C 66% 6.4 mph SSE10.3 kmh SSE 10.0 mph16.1 kmh 29.86 in1011.2 mb - 0.00 in0.0 mm 0.00 in0.0 mm
02:30 PM 85.8°F29.9°C 73.6°F23.1°C 67% 7.8 mph SE12.6 kmh SE 13.0 mph20.9 kmh 29.85 in1010.8 mb - 0.00 in0.0 mm 0.00 in0.0 mm
02:40 PM 85.6°F29.8°C 73.4°F23.0°C 67% 9.1 mph SSE14.6 kmh SSE 16.0 mph25.7 kmh 29.84 in1010.5 mb - 0.00 in0.0 mm 0.00 in0.0 mm
02:50 PM 84.6°F29.2°C 74.2°F23.4°C 71% 9.8 mph SE15.8 kmh SE 21.0 mph33.8 kmh 29.83 in1010.2 mb - 0.00 in0.0 mm 0.00 in0.0 mm
03:00 PM 81.6°F27.6°C 74.1°F23.4°C 78% 5.8 mph SE9.3 kmh SE 9.0 mph14.5 kmh 29.84 in1010.5 mb - 0.05 in1.3 mm 0.05 in1.3 mm
03:10 PM 80.0°F26.7°C 73.6°F23.1°C 81% 9.0 mph SSW14.5 kmh SSW 14.0 mph22.5 kmh 29.83 in1010.2 mb - 0.00 in0.0 mm 0.05 in1.3 mm
03:20 PM 78.4°F25.8°C 72.4°F22.4°C 82% 9.2 mph S14.8 kmh S 16.0 mph25.7 kmh 29.85 in1010.8 mb - 0.00 in0.0 mm 0.05 in1.3 mm
03:30 PM 76.9°F24.9°C 71.0°F21.7°C 82% 9.6 mph SSW15.4 kmh SSW 14.0 mph22.5 kmh 29.86 in1011.2 mb - 0.01 in0.3 mm 0.06 in1.5 mm
03:40 PM 75.6°F24.2°C 68.6°F20.3°C 79% 5.0 mph S8.0 kmh S 10.0 mph16.1 kmh 29.84 in1010.5 mb - 0.00 in0.0 mm 0.06 in1.5 mm
03:50 PM 75.7°F24.3°C 69.1°F20.6°C 80% 5.1 mph SSW8.2 kmh SSW 7.0 mph11.3 kmh 29.84 in1010.5 mb - 0.00 in0.0 mm 0.06 in1.5 mm
04:00 PM 75.6°F24.2°C 69.0°F20.6°C 80% 2.5 mph NW4.0 kmh NW 8.0 mph12.9 kmh 29.85 in1010.8 mb - 0.00 in0.0 mm 0.06 in1.5 mm
04:10 PM 76.2°F24.6°C 69.2°F20.7°C 79% 3.3 mph WNW5.3 kmh WNW 6.0 mph9.7 kmh 29.85 in1010.8 mb - 0.00 in0.0 mm 0.06 in1.5 mm
04:20 PM 76.2°F24.6°C 70.0°F21.1°C 81% 2.6 mph SSW4.2 kmh SSW 9.0 mph14.5 kmh 29.87 in1011.5 mb - 0.07 in1.8 mm 0.13 in3.3 mm
04:30 PM 74.8°F23.8°C 69.6°F20.9°C 84% 4.6 mph SE7.4 kmh SE 9.0 mph14.5 kmh 29.84 in1010.5 mb - 0.11 in2.8 mm 0.22 in5.6 mm
04:40 PM 73.8°F23.2°C 69.4°F20.8°C 86% 1.7 mph NW2.7 kmh NW 2.0 mph3.2 kmh 29.88 in1011.9 mb - 0.00 in0.0 mm 0.22 in5.6 mm
04:50 PM 73.0°F22.8°C 68.6°F20.3°C 86% 1.0 mph NW1.6 kmh NW 2.0 mph3.2 kmh 29.88 in1011.9 mb - 0.06 in1.5 mm 0.28 in7.1 mm
05:00 PM 73.1°F22.8°C 69.0°F20.6°C 87% 0.1 mph NW0.2 kmh NW 2.0 mph3.2 kmh 29.89 in1012.2 mb - 0.02 in0.5 mm 0.30 in7.6 mm
05:10 PM 73.5°F23.1°C 69.7°F20.9°C 88% 1.1 mph SE1.8 kmh SE 2.0 mph3.2 kmh 29.89 in1012.2 mb - 0.02 in0.5 mm 0.31 in7.9 mm
05:20 PM 73.7°F23.2°C 69.9°F21.1°C 88% 2.1 mph N3.4 kmh N 4.0 mph6.4 kmh 29.88 in1011.9 mb - 0.05 in1.3 mm 0.36 in9.1 mm
05:30 PM 73.9°F23.3°C 70.5°F21.4°C 89% Calm Calm -- 29.87 in1011.5 mb - 0.01 in0.3 mm 0.36 in9.1 mm
05:40 PM 74.0°F23.3°C 70.5°F21.4°C 89% Calm Calm -- 29.88 in1011.9 mb - 0.00 in0.0 mm 0.36 in9.1 mm
05:50 PM 74.4°F23.6°C 70.9°F21.6°C 89% 1.2 mph E1.9 kmh E 5.0 mph8.0 kmh 29.87 in1011.5 mb - 0.00 in0.0 mm 0.36 in9.1 mm
06:00 PM 74.3°F23.5°C 70.8°F21.6°C 89% 1.5 mph E2.4 kmh E 3.0 mph4.8 kmh 29.88 in1011.9 mb - 0.00 in0.0 mm 0.36 in9.1 mm
06:10 PM 74.3°F23.5°C 70.8°F21.6°C 89% 2.6 mph E4.2 kmh E 4.0 mph6.4 kmh 29.88 in1011.9 mb - 0.00 in0.0 mm 0.36 in9.1 mm
06:20 PM 74.2°F23.4°C 70.4°F21.3°C 88% 3.4 mph E5.5 kmh E 4.0 mph6.4 kmh 29.87 in1011.5 mb - 0.00 in0.0 mm 0.36 in9.1 mm
06:30 PM 74.4°F23.6°C 70.6°F21.4°C 88% 2.6 mph SE4.2 kmh SE 7.0 mph11.3 kmh 29.88 in1011.9 mb - 0.00 in0.0 mm 0.36 in9.1 mm
06:40 PM 74.2°F23.4°C 70.4°F21.3°C 88% 4.4 mph SSE7.1 kmh SSE 7.0 mph11.3 kmh 29.88 in1011.9 mb - 0.00 in0.0 mm 0.36 in9.1 mm
06:50 PM 74.8°F23.8°C 71.0°F21.7°C 88% 4.5 mph SSE7.2 kmh SSE 8.0 mph12.9 kmh 29.89 in1012.2 mb - 0.00 in0.0 mm 0.36 in9.1 mm
07:00 PM 74.3°F23.5°C 70.1°F21.2°C 87% 5.1 mph SE8.2 kmh SE 11.0 mph17.7 kmh 29.89 in1012.2 mb - 0.00 in0.0 mm 0.36 in9.1 mm
07:10 PM 74.0°F23.3°C 69.9°F21.1°C 87% 2.6 mph SSE4.2 kmh SSE 5.0 mph8.0 kmh 29.89 in1012.2 mb - 0.00 in0.0 mm 0.36 in9.1 mm
07:20 PM 74.6°F23.7°C 70.5°F21.4°C 87% 1.8 mph SE2.9 kmh SE 3.0 mph4.8 kmh 29.89 in1012.2 mb - 0.00 in0.0 mm 0.36 in9.1 mm
07:30 PM 75.0°F23.9°C 71.2°F21.8°C 88% 1.6 mph SSE2.6 kmh SSE 3.0 mph4.8 kmh 29.90 in1012.5 mb - 0.00 in0.0 mm 0.36 in9.1 mm
07:40 PM 75.3°F24.1°C 71.5°F21.9°C 88% Calm Calm -- 29.90 in1012.5 mb - 0.00 in0.0 mm 0.36 in9.1 mm
07:50 PM 75.5°F24.2°C 71.7°F22.1°C 88% 1.5 mph NW2.4 kmh NW 6.0 mph9.7 kmh 29.91 in1012.9 mb - 0.00 in0.0 mm 0.36 in9.1 mm
08:00 PM 75.1°F23.9°C 71.3°F21.8°C 88% Calm Calm 1.0 mph1.6 kmh 29.91 in1012.9 mb - 0.01 in0.3 mm 0.37 in9.4 mm
08:10 PM 75.0°F23.9°C 71.2°F21.8°C 88% 3.1 mph SE5.0 kmh SE 4.0 mph6.4 kmh 29.91 in1012.9 mb - 0.01 in0.3 mm 0.37 in9.4 mm
08:20 PM 75.1°F23.9°C 71.3°F21.8°C 88% 2.1 mph S3.4 kmh S 4.0 mph6.4 kmh 29.91 in1012.9 mb - 0.00 in0.0 mm 0.37 in9.4 mm
08:30 PM 75.1°F23.9°C 71.6°F22.0°C 89% 3.9 mph S6.3 kmh S 7.0 mph11.3 kmh 29.91 in1012.9 mb - 0.00 in0.0 mm 0.37 in9.4 mm
08:40 PM 75.0°F23.9°C 71.5°F21.9°C 89% 2.4 mph SSE3.9 kmh SSE 3.0 mph4.8 kmh 29.91 in1012.9 mb - 0.00 in0.0 mm 0.37 in9.4 mm
08:50 PM 74.9°F23.8°C 71.4°F21.9°C 89% 2.1 mph S3.4 kmh S 3.0 mph4.8 kmh 29.91 in1012.9 mb - 0.00 in0.0 mm 0.37 in9.4 mm
09:00 PM 74.8°F23.8°C 71.3°F21.8°C 89% 0.9 mph S1.4 kmh S 3.0 mph4.8 kmh 29.92 in1013.2 mb - 0.00 in0.0 mm 0.37 in9.4 mm
09:10 PM 74.7°F23.7°C 71.2°F21.8°C 89% 1.8 mph SSE2.9 kmh SSE 2.0 mph3.2 kmh 29.92 in1013.2 mb - 0.00 in0.0 mm 0.37 in9.4 mm
09:20 PM 74.5°F23.6°C 71.1°F21.7°C 89% 0.7 mph SSE1.1 kmh SSE 2.0 mph3.2 kmh 29.92 in1013.2 mb - 0.00 in0.0 mm 0.37 in9.4 mm
09:30 PM 74.4°F23.6°C 71.0°F21.7°C 89% 1.5 mph S2.4 kmh S 2.0 mph3.2 kmh 29.92 in1013.2 mb - 0.00 in0.0 mm 0.37 in9.4 mm
09:40 PM 74.2°F23.4°C 70.8°F21.6°C 89% Calm Calm -- 29.92 in1013.2 mb - 0.00 in0.0 mm 0.37 in9.4 mm
09:50 PM 74.1°F23.4°C 70.6°F21.4°C 89% Calm Calm -- 29.92 in1013.2 mb - 0.00 in0.0 mm 0.37 in9.4 mm
10:00 PM 74.1°F23.4°C 71.0°F21.7°C 90% Calm Calm -- 29.93 in1013.5 mb - 0.00 in0.0 mm 0.37 in9.4 mm
10:10 PM 74.0°F23.3°C 70.9°F21.6°C 90% Calm Calm -- 29.93 in1013.5 mb - 0.00 in0.0 mm 0.37 in9.4 mm
10:20 PM 74.0°F23.3°C 70.9°F21.6°C 90% Calm Calm -- 29.93 in1013.5 mb - 0.00 in0.0 mm 0.37 in9.4 mm
10:30 PM 74.0°F23.3°C 70.9°F21.6°C 90% Calm Calm -- 29.93 in1013.5 mb - 0.00 in0.0 mm 0.37 in9.4 mm
10:40 PM 73.9°F23.3°C 70.8°F21.6°C 90% 3.9 mph NW6.3 kmh NW 5.0 mph8.0 kmh 29.94 in1013.9 mb - 0.00 in0.0 mm 0.37 in9.4 mm
10:50 PM 73.8°F23.2°C 70.7°F21.5°C 90% 7.8 mph NW12.6 kmh NW 8.0 mph12.9 kmh 29.95 in1014.2 mb - 0.00 in0.0 mm 0.37 in9.4 mm
11:00 PM 73.6°F23.1°C 70.5°F21.4°C 90% 3.4 mph WNW5.5 kmh WNW 6.0 mph9.7 kmh 29.95 in1014.2 mb - 0.00 in0.0 mm 0.37 in9.4 mm
11:10 PM 73.5°F23.1°C 70.4°F21.3°C 90% 0.6 mph NW1.0 kmh NW 1.0 mph1.6 kmh 29.95 in1014.2 mb - 0.00 in0.0 mm 0.37 in9.4 mm
11:20 PM 73.5°F23.1°C 70.4°F21.3°C 90% Calm Calm -- 29.94 in1013.9 mb - 0.00 in0.0 mm 0.37 in9.4 mm
11:30 PM 73.4°F23.0°C 70.3°F21.3°C 90% 0.7 mph NW1.1 kmh NW 2.0 mph3.2 kmh 29.94 in1013.9 mb - 0.00 in0.0 mm 0.37 in9.4 mm
11:40 PM 73.3°F22.9°C 70.2°F21.2°C 90% 0.6 mph N1.0 kmh N 2.0 mph3.2 kmh 29.94 in1013.9 mb - 0.00 in0.0 mm 0.37 in9.4 mm
11:50 PM 73.3°F22.9°C 70.2°F21.2°C 90% 0.4 mph N0.6 kmh N 2.0 mph3.2 kmh 29.94 in1013.9 mb - 0.00 in0.0 mm 0.37 in9.4 mm